createdAt,value
2019-05-23T00:00:41.716Z,8.53
2019-05-23T00:01:41.902Z,8.56
2019-05-23T00:02:42.119Z,8.63
2019-05-23T00:03:42.333Z,8.46
2019-05-23T00:04:42.525Z,8.52
2019-05-23T00:05:42.726Z,8.46
2019-05-23T00:06:42.906Z,8.42
2019-05-23T00:07:43.138Z,8.42
2019-05-23T00:08:43.328Z,8.38
2019-05-23T00:09:43.536Z,8.38
2019-05-23T00:10:43.771Z,8.41
2019-05-23T00:11:43.887Z,8.32
2019-05-23T00:12:44.014Z,8.24
2019-05-23T00:13:44.186Z,8.21
2019-05-23T00:14:44.350Z,8.18
2019-05-23T00:15:44.546Z,8.13
2019-05-23T00:16:44.729Z,8.09
2019-05-23T00:17:44.935Z,8.02
2019-05-23T00:18:45.112Z,8.13
2019-05-23T00:19:45.297Z,8.08
2019-05-23T00:20:45.495Z,8.06
2019-05-23T00:21:45.670Z,8.08
2019-05-23T00:22:45.900Z,8.08
2019-05-23T00:23:46.084Z,8.09
2019-05-23T00:24:46.268Z,8.20
2019-05-23T00:25:46.445Z,8.13
2019-05-23T00:26:46.635Z,8.17
2019-05-23T00:27:46.825Z,8.24
2019-05-23T00:28:47.034Z,8.11
2019-05-23T00:29:47.189Z,8.06
2019-05-23T00:30:47.373Z,8.13
2019-05-23T00:31:47.519Z,8.09
2019-05-23T00:32:47.728Z,8.11
2019-05-23T00:33:47.934Z,8.03
2019-05-23T00:34:48.110Z,8.08
2019-05-23T00:35:48.299Z,8.08
2019-05-23T00:36:48.503Z,7.91
2019-05-23T00:37:48.714Z,8.01
2019-05-23T00:38:48.922Z,7.85
2019-05-23T00:39:49.118Z,7.96
2019-05-23T00:40:49.307Z,8.03
2019-05-23T00:41:49.548Z,8.01
2019-05-23T00:42:49.748Z,7.91
2019-05-23T00:43:49.948Z,7.95
2019-05-23T00:44:50.160Z,8.02
2019-05-23T00:45:50.348Z,8.02
2019-05-23T00:46:50.617Z,7.96
2019-05-23T00:47:50.786Z,7.91
2019-05-23T00:48:50.999Z,7.90
2019-05-23T00:49:51.188Z,7.87
2019-05-23T00:50:51.355Z,7.85
2019-05-23T00:51:51.538Z,7.88
2019-05-23T00:52:51.709Z,7.84
2019-05-23T00:53:51.863Z,7.85
2019-05-23T00:54:52.036Z,7.81
2019-05-23T00:55:52.211Z,7.72
2019-05-23T00:56:52.388Z,7.83
2019-05-23T00:57:52.555Z,7.83
2019-05-23T00:58:52.707Z,7.87
2019-05-23T00:59:52.858Z,7.93
2019-05-23T01:00:53.051Z,7.85
2019-05-23T01:01:53.202Z,7.84
2019-05-23T01:02:53.380Z,7.78
2019-05-23T01:03:53.518Z,7.75
2019-05-23T01:04:53.685Z,7.83
2019-05-23T01:05:53.844Z,7.72
2019-05-23T01:06:53.990Z,7.64
2019-05-23T01:07:54.147Z,7.62
2019-05-23T01:08:54.321Z,7.58
2019-05-23T01:09:54.489Z,7.55
2019-05-23T01:10:54.677Z,7.48
2019-05-23T01:11:54.840Z,7.47
2019-05-23T01:12:55.015Z,7.51
2019-05-23T01:13:55.156Z,7.43
2019-05-23T01:14:55.302Z,7.51
2019-05-23T01:15:55.525Z,7.50
2019-05-23T01:16:55.673Z,7.50
2019-05-23T01:17:55.822Z,7.46
2019-05-23T01:18:55.989Z,7.43
2019-05-23T01:19:56.140Z,7.44
2019-05-23T01:20:56.337Z,7.44
2019-05-23T01:21:56.535Z,7.46
2019-05-23T01:22:56.694Z,7.43
2019-05-23T01:23:57.848Z,7.29
2019-05-23T01:24:57.094Z,7.23
2019-05-23T01:25:57.280Z,7.11
2019-05-23T01:26:57.464Z,7.23
2019-05-23T01:27:57.612Z,7.11
2019-05-23T01:28:57.785Z,7.11
2019-05-23T01:29:57.958Z,7.08
2019-05-23T01:30:58.164Z,7.01
2019-05-23T01:31:58.304Z,6.96
2019-05-23T01:32:58.471Z,7.00
2019-05-23T01:33:58.625Z,6.96
2019-05-23T01:34:58.780Z,6.86
2019-05-23T01:35:58.952Z,6.93
2019-05-23T01:36:59.120Z,6.90
2019-05-23T01:37:59.372Z,6.78
2019-05-23T01:38:59.524Z,6.83
2019-05-23T01:39:59.685Z,6.72
2019-05-23T01:40:59.845Z,6.72
2019-05-23T01:42:00.018Z,6.90
2019-05-23T01:43:00.190Z,6.90
2019-05-23T01:44:00.332Z,6.96
2019-05-23T01:45:00.468Z,7.03
2019-05-23T01:46:00.595Z,7.08
2019-05-23T01:47:00.749Z,7.03
2019-05-23T01:48:00.883Z,7.08
2019-05-23T01:49:01.043Z,7.08
2019-05-23T01:50:01.161Z,7.08
2019-05-23T01:51:01.401Z,7.01
2019-05-23T01:52:01.553Z,7.00
2019-05-23T01:53:01.693Z,6.95
2019-05-23T01:54:01.864Z,6.90
2019-05-23T01:55:02.000Z,7.03
2019-05-23T01:56:02.151Z,7.10
2019-05-23T01:57:02.357Z,7.13
2019-05-23T01:58:02.530Z,7.22
2019-05-23T01:59:02.686Z,7.32
2019-05-23T02:00:10.060Z,7.29
2019-05-23T02:01:04.961Z,7.31
2019-05-23T02:02:03.199Z,7.29
2019-05-23T02:03:03.342Z,7.13
2019-05-23T02:04:03.527Z,7.22
2019-05-23T02:05:03.676Z,7.13
2019-05-23T02:06:03.865Z,7.26
2019-05-23T02:07:04.029Z,7.14
2019-05-23T02:08:04.291Z,7.21
2019-05-23T02:09:04.469Z,7.18
2019-05-23T02:10:04.697Z,7.05
2019-05-23T02:11:04.788Z,7.03
2019-05-23T02:12:04.951Z,6.90
2019-05-23T02:13:05.134Z,6.93
2019-05-23T02:14:05.346Z,6.89
2019-05-23T02:15:05.521Z,6.86
2019-05-23T02:16:05.711Z,6.85
2019-05-23T02:17:05.873Z,6.93
2019-05-23T02:18:06.047Z,6.92
2019-05-23T02:19:06.244Z,7.01
2019-05-23T02:20:06.426Z,7.05
2019-05-23T02:21:06.612Z,7.01
2019-05-23T02:22:06.833Z,7.00
2019-05-23T02:23:06.986Z,6.95
2019-05-23T02:24:07.175Z,6.93
2019-05-23T02:25:07.429Z,6.93
2019-05-23T02:26:07.613Z,6.83
2019-05-23T02:27:07.812Z,6.85
2019-05-23T02:28:07.999Z,6.90
2019-05-23T02:29:08.214Z,6.92
2019-05-23T02:30:29.911Z,6.74
2019-05-23T02:31:09.573Z,6.75
2019-05-23T02:32:08.701Z,6.78
2019-05-23T02:33:08.890Z,6.83
2019-05-23T02:34:09.079Z,6.80
2019-05-23T02:35:09.281Z,6.77
2019-05-23T02:36:09.439Z,6.72
2019-05-23T02:37:09.625Z,6.64
2019-05-23T02:38:09.787Z,6.68
2019-05-23T02:39:09.953Z,6.60
2019-05-23T02:40:10.167Z,6.71
2019-05-23T02:41:10.335Z,6.68
2019-05-23T02:42:10.516Z,6.68
2019-05-23T02:43:10.666Z,6.77
2019-05-23T02:44:10.879Z,6.82
2019-05-23T02:45:11.042Z,6.86
2019-05-23T02:46:11.202Z,6.82
2019-05-23T02:47:11.382Z,6.78
2019-05-23T02:48:11.550Z,6.80
2019-05-23T02:49:11.728Z,6.85
2019-05-23T02:50:11.869Z,6.74
2019-05-23T02:51:12.021Z,6.68
2019-05-23T02:52:12.214Z,6.83
2019-05-23T02:53:12.409Z,6.70
2019-05-23T02:54:12.594Z,6.72
2019-05-23T02:55:12.772Z,6.72
2019-05-23T02:56:12.974Z,6.65
2019-05-23T02:57:13.151Z,6.74
2019-05-23T02:58:13.315Z,6.65
2019-05-23T02:59:13.484Z,6.67
2019-05-23T03:00:13.668Z,6.65
2019-05-23T03:01:13.866Z,6.67
2019-05-23T03:02:14.025Z,6.59
2019-05-23T03:03:14.178Z,6.64
2019-05-23T03:04:14.345Z,6.52
2019-05-23T03:05:14.505Z,6.50
2019-05-23T03:06:14.682Z,6.52
2019-05-23T03:07:14.835Z,6.56
2019-05-23T03:08:14.987Z,6.56
2019-05-23T03:09:15.193Z,6.46
2019-05-23T03:10:15.390Z,6.43
2019-05-23T03:11:15.549Z,6.50
2019-05-23T03:12:15.706Z,6.32
2019-05-23T03:13:15.890Z,6.36
2019-05-23T03:14:16.077Z,6.36
2019-05-23T03:15:16.252Z,6.36
2019-05-23T03:16:16.472Z,6.38
2019-05-23T03:17:16.688Z,6.41
2019-05-23T03:18:16.901Z,6.35
2019-05-23T03:19:17.090Z,6.36
2019-05-23T03:20:17.287Z,6.41
2019-05-23T03:21:17.492Z,6.38
2019-05-23T03:22:17.715Z,6.17
2019-05-23T03:23:17.889Z,6.31
2019-05-23T03:24:18.056Z,6.17
2019-05-23T03:25:18.219Z,6.32
2019-05-23T03:26:18.405Z,6.25
2019-05-23T03:27:18.587Z,6.13
2019-05-23T03:28:18.746Z,6.09
2019-05-23T03:29:18.895Z,5.95
2019-05-23T03:30:19.042Z,5.99
2019-05-23T03:31:30.056Z,5.84
2019-05-23T03:32:21.447Z,5.84
2019-05-23T03:33:19.594Z,5.88
2019-05-23T03:34:19.699Z,5.81
2019-05-23T03:35:19.901Z,5.77
2019-05-23T03:36:20.067Z,5.76
2019-05-23T03:37:20.217Z,5.74
2019-05-23T03:38:20.375Z,5.79
2019-05-23T03:39:20.509Z,5.73
2019-05-23T03:40:20.757Z,5.83
2019-05-23T03:41:20.874Z,5.88
2019-05-23T03:42:20.997Z,5.91
2019-05-23T03:43:21.173Z,6.07
2019-05-23T03:44:21.317Z,6.15
2019-05-23T03:45:21.430Z,6.10
2019-05-23T03:46:21.673Z,6.25
2019-05-23T03:47:21.919Z,6.10
2019-05-23T03:48:22.165Z,6.07
2019-05-23T03:49:22.346Z,6.02
2019-05-23T03:50:22.508Z,6.09
2019-05-23T03:51:22.646Z,6.13
2019-05-23T03:52:22.797Z,6.02
2019-05-23T03:53:22.966Z,6.31
2019-05-23T03:54:23.125Z,6.41
2019-05-23T03:55:23.253Z,6.39
2019-05-23T03:56:23.381Z,6.35
2019-05-23T03:57:25.840Z,6.46
2019-05-23T03:58:24.702Z,6.54
2019-05-23T03:59:23.964Z,6.62
2019-05-23T04:00:24.121Z,6.64
2019-05-23T04:01:24.287Z,6.56
2019-05-23T04:02:24.449Z,6.57
2019-05-23T04:03:24.641Z,6.77
2019-05-23T04:04:24.812Z,6.60
2019-05-23T04:05:24.985Z,6.71
2019-05-23T04:06:25.137Z,6.68
2019-05-23T04:07:25.282Z,6.82
2019-05-23T04:08:25.420Z,6.83
2019-05-23T04:09:25.597Z,6.86
2019-05-23T04:10:25.765Z,6.96
2019-05-23T04:11:25.897Z,7.04
2019-05-23T04:12:26.025Z,7.13
2019-05-23T04:13:26.159Z,7.05
2019-05-23T04:14:26.294Z,7.03
2019-05-23T04:15:26.435Z,7.11
2019-05-23T04:16:30.518Z,7.14
2019-05-23T04:17:27.742Z,7.14
2019-05-23T04:18:26.987Z,7.11
2019-05-23T04:19:27.123Z,7.19
2019-05-23T04:20:27.308Z,7.21
2019-05-23T04:21:27.444Z,7.18
2019-05-23T04:22:27.590Z,7.23
2019-05-23T04:23:27.720Z,7.33
2019-05-23T04:24:27.857Z,7.36
2019-05-23T04:25:28.019Z,7.33
2019-05-23T04:26:29.187Z,7.46
2019-05-23T04:27:28.333Z,7.53
2019-05-23T04:28:28.506Z,7.55
2019-05-23T04:29:28.657Z,7.51
2019-05-23T04:30:28.822Z,7.51
2019-05-23T04:31:29.021Z,7.56
2019-05-23T04:32:29.184Z,7.61
2019-05-23T04:33:29.329Z,7.66
2019-05-23T04:34:29.491Z,7.66
2019-05-23T04:35:29.631Z,7.77
2019-05-23T04:36:29.910Z,7.74
2019-05-23T04:37:29.939Z,7.87
2019-05-23T04:38:30.094Z,7.90
2019-05-23T04:39:30.240Z,7.90
2019-05-23T04:40:30.427Z,7.93
2019-05-23T04:41:30.609Z,7.91
2019-05-23T04:42:30.779Z,7.98
2019-05-23T04:43:30.965Z,7.96
2019-05-23T04:44:31.145Z,8.14
2019-05-23T04:45:31.314Z,7.99
2019-05-23T04:46:31.525Z,8.11
2019-05-23T04:47:31.699Z,8.14
2019-05-23T04:48:31.863Z,8.13
2019-05-23T04:49:32.039Z,8.13
2019-05-23T04:50:32.205Z,8.17
2019-05-23T04:51:32.417Z,8.31
2019-05-23T04:52:32.595Z,8.34
2019-05-23T04:53:32.798Z,8.36
2019-05-23T04:54:32.976Z,8.42
2019-05-23T04:55:33.157Z,8.53
2019-05-23T04:56:33.395Z,8.56
2019-05-23T04:57:33.443Z,8.59
2019-05-23T04:58:33.621Z,8.60
2019-05-23T04:59:33.812Z,8.63
2019-05-23T05:00:33.974Z,8.69
2019-05-23T05:01:34.182Z,8.77
2019-05-23T05:02:34.375Z,8.92
2019-05-23T05:03:34.541Z,8.79
2019-05-23T05:04:34.723Z,8.92
2019-05-23T05:05:34.890Z,8.92
2019-05-23T05:06:35.050Z,8.97
2019-05-23T05:07:35.212Z,9.11
2019-05-23T05:08:35.405Z,9.12
2019-05-23T05:09:42.543Z,9.11
2019-05-23T05:10:35.813Z,9.16
2019-05-23T05:11:35.995Z,9.18
2019-05-23T05:12:36.174Z,9.21
2019-05-23T05:13:36.357Z,9.11
2019-05-23T05:14:36.562Z,9.21
2019-05-23T05:15:36.719Z,9.19
2019-05-23T05:16:36.900Z,9.21
2019-05-23T05:17:37.117Z,9.09
2019-05-23T05:18:37.268Z,9.08
2019-05-23T05:19:37.459Z,8.89
2019-05-23T05:20:37.645Z,8.86
2019-05-23T05:21:37.780Z,8.69
2019-05-23T05:22:37.983Z,8.66
2019-05-23T05:23:38.231Z,8.64
2019-05-23T05:24:40.184Z,8.63
2019-05-23T05:25:39.537Z,8.63
2019-05-23T05:26:38.707Z,8.74
2019-05-23T05:27:38.874Z,8.72
2019-05-23T05:28:39.062Z,8.82
2019-05-23T05:29:39.240Z,8.84
2019-05-23T05:30:39.449Z,8.78
2019-05-23T05:31:40.626Z,8.79
2019-05-23T05:32:44.913Z,8.87
2019-05-23T05:33:41.935Z,8.78
2019-05-23T05:34:40.092Z,8.79
2019-05-23T05:35:40.256Z,8.92
2019-05-23T05:36:40.443Z,8.89
2019-05-23T05:37:40.618Z,8.93
2019-05-23T05:38:40.757Z,8.90
2019-05-23T05:39:41.021Z,9.02
2019-05-23T05:40:41.065Z,9.18
2019-05-23T05:41:41.196Z,9.22
2019-05-23T05:42:41.445Z,9.26
2019-05-23T05:43:41.615Z,9.30
2019-05-23T05:44:41.818Z,9.36
2019-05-23T05:45:42.008Z,9.42
2019-05-23T05:46:42.153Z,9.44
2019-05-23T05:47:42.312Z,9.49
2019-05-23T05:48:42.548Z,9.54
2019-05-23T05:49:42.679Z,9.56
2019-05-23T05:50:42.738Z,9.72
2019-05-23T05:51:42.992Z,9.64
2019-05-23T05:52:43.061Z,9.76
2019-05-23T05:53:43.256Z,9.74
2019-05-23T05:54:43.466Z,9.81
2019-05-23T05:55:43.658Z,9.84
2019-05-23T05:56:43.826Z,9.94
2019-05-23T05:57:44.006Z,10.00
2019-05-23T05:58:44.234Z,9.97
2019-05-23T05:59:44.422Z,10.00
2019-05-23T06:00:44.603Z,10.12
2019-05-23T06:01:44.769Z,10.10
2019-05-23T06:03:02.806Z,10.17
2019-05-23T06:03:47.123Z,10.12
2019-05-23T06:04:45.268Z,10.15
2019-05-23T06:05:45.468Z,10.17
2019-05-23T06:06:45.663Z,10.20
2019-05-23T06:07:45.949Z,10.23
2019-05-23T06:08:47.113Z,10.27
2019-05-23T06:09:46.304Z,10.39
2019-05-23T06:10:46.547Z,10.33
2019-05-23T06:11:46.773Z,10.38
2019-05-23T06:12:46.851Z,10.36
2019-05-23T06:13:47.074Z,10.46
2019-05-23T06:14:47.248Z,10.41
2019-05-23T06:15:47.461Z,10.58
2019-05-23T06:16:47.669Z,10.61
2019-05-23T06:17:47.888Z,10.79
2019-05-23T06:18:48.071Z,10.82
2019-05-23T06:19:48.278Z,10.83
2019-05-23T06:20:49.414Z,10.97
2019-05-23T06:21:48.602Z,11.01
2019-05-23T06:22:48.797Z,11.10
2019-05-23T06:23:49.000Z,11.15
2019-05-23T06:24:53.693Z,11.15
2019-05-23T06:25:51.397Z,11.30
2019-05-23T06:26:49.583Z,11.31
2019-05-23T06:27:49.682Z,11.31
2019-05-23T06:28:49.863Z,11.35
2019-05-23T06:29:50.102Z,11.37
2019-05-23T06:30:50.169Z,11.53
2019-05-23T06:31:50.416Z,11.60
2019-05-23T06:32:50.492Z,11.59
2019-05-23T06:33:50.692Z,11.67
2019-05-23T06:34:50.878Z,11.71
2019-05-23T06:35:51.097Z,11.83
2019-05-23T06:36:51.339Z,11.93
2019-05-23T06:37:51.577Z,11.86
2019-05-23T06:38:51.678Z,12.02
2019-05-23T06:39:51.885Z,12.10
2019-05-23T06:40:52.079Z,12.05
2019-05-23T06:41:52.269Z,12.17
2019-05-23T06:42:52.452Z,12.30
2019-05-23T06:43:52.621Z,12.40
2019-05-23T06:44:52.785Z,12.54
2019-05-23T06:45:52.986Z,12.58
2019-05-23T06:46:53.196Z,12.73
2019-05-23T06:47:53.355Z,12.66
2019-05-23T06:48:53.580Z,12.78
2019-05-23T06:49:53.738Z,12.76
2019-05-23T06:50:53.921Z,12.75
2019-05-23T06:51:54.178Z,12.88
2019-05-23T06:52:54.337Z,12.93
2019-05-23T06:53:54.472Z,12.95
2019-05-23T06:54:54.631Z,12.94
2019-05-23T06:55:54.787Z,13.03
2019-05-23T06:56:54.977Z,13.17
2019-05-23T06:57:55.199Z,13.11
2019-05-23T06:58:55.392Z,13.27
2019-05-23T06:59:55.554Z,13.28
2019-05-23T07:00:55.745Z,13.31
2019-05-23T07:01:55.963Z,13.42
2019-05-23T07:02:56.155Z,13.30
2019-05-23T07:03:56.399Z,13.36
2019-05-23T07:04:56.465Z,13.47
2019-05-23T07:05:56.644Z,13.46
2019-05-23T07:06:56.832Z,13.52
2019-05-23T07:07:57.085Z,13.47
2019-05-23T07:08:57.227Z,13.52
2019-05-23T07:09:57.339Z,13.57
2019-05-23T07:10:57.462Z,13.61
2019-05-23T07:11:57.625Z,13.55
2019-05-23T07:12:57.845Z,13.65
2019-05-23T07:13:57.958Z,13.62
2019-05-23T07:14:58.176Z,13.61
2019-05-23T07:15:58.411Z,13.68
2019-05-23T07:16:58.629Z,13.73
2019-05-23T07:17:58.828Z,13.67
2019-05-23T07:18:59.042Z,13.75
2019-05-23T07:19:59.257Z,13.75
2019-05-23T07:20:59.481Z,13.83
2019-05-23T07:21:59.704Z,13.80
2019-05-23T07:22:59.901Z,13.86
2019-05-23T07:24:00.092Z,13.83
2019-05-23T07:25:00.295Z,14.04
2019-05-23T07:26:00.509Z,13.98
2019-05-23T07:27:00.707Z,14.05
2019-05-23T07:28:00.916Z,14.13
2019-05-23T07:29:01.138Z,14.05
2019-05-23T07:30:01.407Z,14.18
2019-05-23T07:31:01.526Z,14.19
2019-05-23T07:32:01.725Z,14.22
2019-05-23T07:33:01.919Z,14.40
2019-05-23T07:34:02.822Z,14.37
2019-05-23T07:35:03.295Z,14.51
2019-05-23T07:36:02.480Z,14.61
2019-05-23T07:37:02.742Z,14.63
2019-05-23T07:38:02.887Z,14.68
2019-05-23T07:39:02.976Z,14.74
2019-05-23T07:40:03.190Z,14.79
2019-05-23T07:41:03.418Z,14.89
2019-05-23T07:42:03.682Z,15.12
2019-05-23T07:43:03.775Z,15.27
2019-05-23T07:44:03.996Z,15.25
2019-05-23T07:45:04.111Z,15.32
2019-05-23T07:46:04.323Z,15.37
2019-05-23T07:47:04.511Z,15.62
2019-05-23T07:48:04.714Z,15.63
2019-05-23T07:49:04.983Z,15.62
2019-05-23T07:50:05.108Z,15.72
2019-05-23T07:51:05.305Z,15.76
2019-05-23T07:52:05.403Z,15.78
2019-05-23T07:53:05.575Z,15.83
2019-05-23T07:54:05.821Z,15.85
2019-05-23T07:55:06.039Z,15.98
2019-05-23T07:56:06.312Z,16.03
2019-05-23T07:57:06.343Z,16.10
2019-05-23T07:58:06.530Z,16.24
2019-05-23T07:59:06.721Z,16.36
2019-05-23T08:00:06.886Z,16.37
2019-05-23T08:01:07.235Z,16.39
2019-05-23T08:02:07.314Z,16.61
2019-05-23T08:03:07.544Z,16.82
2019-05-23T08:04:20.394Z,17.04
2019-05-23T08:05:09.826Z,17.14
2019-05-23T08:06:08.012Z,17.46
2019-05-23T08:07:08.200Z,17.72
2019-05-23T08:08:08.421Z,17.84
2019-05-23T08:09:08.608Z,18.09
2019-05-23T08:10:08.773Z,18.39
2019-05-23T08:11:08.988Z,18.60
2019-05-23T08:12:09.195Z,18.76
2019-05-23T08:13:09.525Z,18.48
2019-05-23T08:14:12.023Z,18.58
2019-05-23T08:15:10.811Z,18.68
2019-05-23T08:16:09.965Z,18.67
2019-05-23T08:17:10.205Z,18.76
2019-05-23T08:18:10.395Z,18.76
2019-05-23T08:19:10.578Z,18.57
2019-05-23T08:20:10.771Z,18.66
2019-05-23T08:21:10.953Z,18.82
2019-05-23T08:22:11.130Z,18.73
2019-05-23T08:23:11.342Z,18.91
2019-05-23T08:24:11.521Z,19.05
2019-05-23T08:25:11.682Z,18.74
2019-05-23T08:26:11.874Z,18.94
2019-05-23T08:27:12.068Z,19.07
2019-05-23T08:28:12.304Z,19.37
2019-05-23T08:29:25.374Z,19.37
2019-05-23T08:30:14.758Z,19.48
2019-05-23T08:31:12.866Z,19.41
2019-05-23T08:32:13.079Z,19.63
2019-05-23T08:33:13.263Z,19.53
2019-05-23T08:34:13.422Z,19.55
2019-05-23T08:35:17.694Z,19.39
2019-05-23T08:36:14.718Z,19.62
2019-05-23T08:37:14.191Z,19.67
2019-05-23T08:38:14.052Z,19.92
2019-05-23T08:39:14.206Z,20.03
2019-05-23T08:40:14.443Z,20.18
2019-05-23T08:41:14.598Z,20.40
2019-05-23T08:42:14.720Z,21.01
2019-05-23T08:43:14.945Z,21.03
2019-05-23T08:44:15.090Z,20.68
2019-05-23T08:45:15.297Z,20.58
2019-05-23T08:46:15.479Z,21.07
2019-05-23T08:47:15.648Z,21.65
2019-05-23T08:48:15.856Z,21.38
2019-05-23T08:49:16.055Z,21.45
2019-05-23T08:50:16.166Z,21.23
2019-05-23T08:51:16.345Z,21.50
2019-05-23T08:52:16.519Z,21.92
2019-05-23T08:53:16.744Z,21.92
2019-05-23T08:54:16.933Z,22.15
2019-05-23T08:55:17.222Z,22.47
2019-05-23T08:56:19.522Z,22.77
2019-05-23T08:57:18.512Z,22.55
2019-05-23T08:58:17.660Z,22.53
2019-05-23T08:59:17.861Z,22.78
2019-05-23T09:00:18.044Z,22.89
2019-05-23T09:01:18.233Z,23.06
2019-05-23T09:02:18.404Z,23.29
2019-05-23T09:03:18.677Z,23.32
2019-05-23T09:04:18.778Z,23.32
2019-05-23T09:05:18.950Z,23.20
2019-05-23T09:06:19.205Z,23.44
2019-05-23T09:07:19.316Z,23.52
2019-05-23T09:08:19.388Z,23.76
2019-05-23T09:09:29.654Z,23.07
2019-05-23T09:10:21.756Z,22.81
2019-05-23T09:11:19.941Z,23.06
2019-05-23T09:12:20.105Z,22.73
2019-05-23T09:13:20.310Z,23.11
2019-05-23T09:14:20.490Z,23.58
2019-05-23T09:15:20.711Z,23.74
2019-05-23T09:16:20.894Z,23.52
2019-05-23T09:17:21.095Z,23.67
2019-05-23T09:18:21.321Z,23.45
2019-05-23T09:19:21.539Z,23.40
2019-05-23T09:20:21.742Z,23.54
2019-05-23T09:21:21.978Z,23.91
2019-05-23T09:22:22.094Z,23.96
2019-05-23T09:23:22.190Z,24.37
2019-05-23T09:24:22.548Z,24.44
2019-05-23T09:25:22.520Z,24.58
2019-05-23T09:26:22.726Z,23.69
2019-05-23T09:27:22.928Z,23.67
2019-05-23T09:28:23.156Z,24.10
2019-05-23T09:29:23.387Z,24.22
2019-05-23T09:30:23.623Z,24.47
2019-05-23T09:31:23.820Z,24.10
2019-05-23T09:32:24.020Z,24.38
2019-05-23T09:33:24.215Z,24.68
2019-05-23T09:34:24.421Z,24.47
2019-05-23T09:35:24.612Z,23.77
2019-05-23T09:36:24.802Z,23.67
2019-05-23T09:37:24.971Z,24.10
2019-05-23T09:38:25.177Z,24.62
2019-05-23T09:39:25.337Z,24.31
2019-05-23T09:40:25.527Z,24.18
2019-05-23T09:41:25.728Z,23.76
2019-05-23T09:42:25.879Z,23.77
2019-05-23T09:43:26.036Z,23.37
2019-05-23T09:44:26.200Z,23.51
2019-05-23T09:45:26.368Z,23.71
2019-05-23T09:46:26.570Z,23.39
2019-05-23T09:47:26.759Z,23.49
2019-05-23T09:48:26.903Z,23.71
2019-05-23T09:49:27.056Z,23.18
2019-05-23T09:50:27.226Z,23.59
2019-05-23T09:51:27.418Z,24.09
2019-05-23T09:52:27.644Z,24.53
2019-05-23T09:53:27.860Z,24.24
2019-05-23T09:54:28.030Z,23.74
2019-05-23T09:55:28.189Z,23.96
2019-05-23T09:56:28.382Z,24.03
2019-05-23T09:57:28.543Z,24.19
2019-05-23T09:58:28.708Z,23.66
2019-05-23T09:59:28.885Z,24.04
2019-05-23T10:00:29.077Z,24.47
2019-05-23T10:01:29.317Z,24.19
2019-05-23T10:02:29.398Z,24.40
2019-05-23T10:03:29.603Z,24.63
2019-05-23T10:04:29.786Z,24.94
2019-05-23T10:05:42.116Z,24.44
2019-05-23T10:06:32.113Z,24.18
2019-05-23T10:07:30.245Z,24.62
2019-05-23T10:08:30.436Z,24.93
2019-05-23T10:09:30.604Z,25.34
2019-05-23T10:10:30.812Z,25.68
2019-05-23T10:11:49.797Z,25.30
2019-05-23T10:12:31.086Z,25.46
2019-05-23T10:13:39.054Z,24.75
2019-05-23T10:14:33.370Z,24.96
2019-05-23T10:15:31.499Z,24.84
2019-05-23T10:16:31.681Z,25.00
2019-05-23T10:17:31.872Z,25.16
2019-05-23T10:18:32.090Z,25.15
2019-05-23T10:19:32.147Z,24.37
2019-05-23T10:20:32.309Z,24.37
2019-05-23T10:21:32.622Z,24.65
2019-05-23T10:22:32.729Z,24.93
2019-05-23T10:23:32.894Z,24.65
2019-05-23T10:24:33.069Z,24.62
2019-05-23T10:25:33.214Z,24.65
2019-05-23T10:26:33.374Z,24.36
2019-05-23T10:27:33.615Z,24.14
2019-05-23T10:28:33.786Z,24.50
2019-05-23T10:29:34.018Z,24.36
2019-05-23T10:30:34.197Z,23.94
2019-05-23T10:31:34.463Z,24.06
2019-05-23T10:32:34.561Z,23.92
2019-05-23T10:33:34.766Z,23.73
2019-05-23T10:34:34.966Z,24.06
2019-05-23T10:35:35.168Z,24.25
2019-05-23T10:36:35.401Z,24.18
2019-05-23T10:37:35.703Z,24.13
2019-05-23T10:38:35.806Z,24.13
2019-05-23T10:39:36.000Z,24.50
2019-05-23T10:40:36.185Z,24.77
2019-05-23T10:41:36.410Z,24.43
2019-05-23T10:42:36.527Z,24.46
2019-05-23T10:43:36.742Z,24.78
2019-05-23T10:44:36.950Z,24.82
2019-05-23T10:45:37.173Z,24.78
2019-05-23T10:46:37.262Z,25.26
2019-05-23T10:47:37.483Z,25.43
2019-05-23T10:48:37.713Z,25.58
2019-05-23T10:49:37.902Z,25.24
2019-05-23T10:50:44.874Z,24.93
2019-05-23T10:51:40.303Z,24.99
2019-05-23T10:52:38.620Z,24.88
2019-05-23T10:53:38.674Z,24.81
2019-05-23T10:54:38.873Z,25.03
2019-05-23T10:55:39.027Z,24.97
2019-05-23T10:56:39.213Z,24.40
2019-05-23T10:57:39.371Z,24.25
2019-05-23T10:58:39.569Z,24.63
2019-05-23T10:59:39.721Z,25.12
2019-05-23T11:00:39.883Z,24.86
2019-05-23T11:01:40.040Z,24.19
2019-05-23T11:02:40.188Z,23.86
2019-05-23T11:03:40.369Z,23.79
2019-05-23T11:04:40.579Z,24.28
2019-05-23T11:05:40.747Z,24.86
2019-05-23T11:06:40.905Z,25.16
2019-05-23T11:07:41.094Z,24.94
2019-05-23T11:08:41.303Z,25.22
2019-05-23T11:09:41.476Z,25.41
2019-05-23T11:10:41.647Z,25.21
2019-05-23T11:11:41.882Z,25.55
2019-05-23T11:12:41.963Z,25.95
2019-05-23T11:13:42.136Z,25.66
2019-05-23T11:14:42.319Z,25.58
2019-05-23T11:15:42.530Z,25.56
2019-05-23T11:16:42.709Z,25.76
2019-05-23T11:17:43.001Z,26.27
2019-05-23T11:18:43.113Z,26.13
2019-05-23T11:19:43.300Z,26.03
2019-05-23T11:20:43.519Z,25.96
2019-05-23T11:21:43.710Z,26.01
2019-05-23T11:22:43.924Z,25.12
2019-05-23T11:23:44.101Z,25.18
2019-05-23T11:24:44.311Z,25.39
2019-05-23T11:25:44.496Z,24.82
2019-05-23T11:26:44.663Z,24.55
2019-05-23T11:27:44.847Z,23.82
2019-05-23T11:28:45.044Z,24.06
2019-05-23T11:29:45.228Z,24.09
2019-05-23T11:30:45.404Z,24.63
2019-05-23T11:31:45.542Z,24.85
2019-05-23T11:32:45.731Z,25.06
2019-05-23T11:33:45.915Z,25.67
2019-05-23T11:34:46.074Z,25.88
2019-05-23T11:35:47.292Z,25.67
2019-05-23T11:36:46.495Z,24.85
2019-05-23T11:37:46.641Z,24.56
2019-05-23T11:38:46.823Z,24.34
2019-05-23T11:39:49.468Z,24.99
2019-05-23T11:40:48.221Z,25.91
2019-05-23T11:41:47.366Z,26.08
2019-05-23T11:42:47.523Z,26.53
2019-05-23T11:43:47.678Z,26.18
2019-05-23T11:44:47.849Z,26.41
2019-05-23T11:45:48.031Z,26.37
2019-05-23T11:46:48.222Z,25.63
2019-05-23T11:47:48.381Z,24.63
2019-05-23T11:48:48.564Z,24.69
2019-05-23T11:49:48.769Z,24.38
2019-05-23T11:50:48.891Z,23.73
2019-05-23T11:51:49.044Z,23.76
2019-05-23T11:52:49.195Z,23.92
2019-05-23T11:54:05.852Z,24.96
2019-05-23T11:54:51.520Z,25.95
2019-05-23T11:55:54.054Z,25.85
2019-05-23T11:56:50.768Z,26.10
2019-05-23T11:57:49.924Z,25.31
2019-05-23T11:58:50.156Z,25.01
2019-05-23T11:59:50.323Z,24.81
2019-05-23T12:00:50.512Z,25.04
2019-05-23T12:01:50.639Z,25.03
2019-05-23T12:02:50.828Z,25.40
2019-05-23T12:03:51.023Z,26.10
2019-05-23T12:04:51.224Z,26.60
2019-05-23T12:05:51.325Z,26.73
2019-05-23T12:06:55.840Z,26.49
2019-05-23T12:07:53.688Z,26.34
2019-05-23T12:08:51.879Z,26.44
2019-05-23T12:09:52.060Z,26.66
2019-05-23T12:10:52.274Z,26.08
2019-05-23T12:11:52.489Z,25.48
2019-05-23T12:12:52.575Z,25.54
2019-05-23T12:13:52.767Z,25.77
2019-05-23T12:14:52.950Z,26.07
2019-05-23T12:15:53.122Z,25.52
2019-05-23T12:16:53.303Z,25.26
2019-05-23T12:17:53.402Z,25.46
2019-05-23T12:18:53.594Z,25.66
2019-05-23T12:19:53.806Z,25.78
2019-05-23T12:20:53.996Z,25.93
2019-05-23T12:21:54.201Z,26.49
2019-05-23T12:22:54.461Z,26.96
2019-05-23T12:23:54.584Z,27.37
2019-05-23T12:24:54.786Z,27.71
2019-05-23T12:25:55.991Z,28.08
2019-05-23T12:26:55.206Z,27.35
2019-05-23T12:27:55.312Z,27.60
2019-05-23T12:28:55.494Z,28.00
2019-05-23T12:29:55.678Z,28.12
2019-05-23T12:30:55.830Z,27.95
2019-05-23T12:31:56.026Z,27.47
2019-05-23T12:32:56.224Z,27.66
2019-05-23T12:33:56.292Z,27.81
2019-05-23T12:35:09.736Z,27.22
2019-05-23T12:35:58.580Z,27.48
2019-05-23T12:37:17.276Z,28.00
2019-05-23T12:38:02.149Z,28.28
2019-05-23T12:38:57.007Z,28.55
2019-05-23T12:39:57.165Z,28.78
2019-05-23T12:40:57.405Z,28.34
2019-05-23T12:41:57.566Z,28.01
2019-05-23T12:42:57.723Z,27.64
2019-05-23T12:43:57.894Z,27.15
2019-05-23T12:44:58.070Z,25.98
2019-05-23T12:45:58.272Z,25.81
2019-05-23T12:46:58.406Z,25.80
2019-05-23T12:47:58.594Z,26.23
2019-05-23T12:48:58.790Z,26.79
2019-05-23T12:49:58.950Z,27.03
2019-05-23T12:50:59.134Z,27.64
2019-05-23T12:51:59.313Z,28.06
2019-05-23T12:52:59.467Z,27.95
2019-05-23T12:53:59.681Z,27.58
2019-05-23T12:54:59.870Z,27.05
2019-05-23T12:56:00.054Z,26.83
2019-05-23T12:57:01.226Z,27.05
2019-05-23T12:58:00.375Z,26.97
2019-05-23T12:59:00.564Z,26.70
2019-05-23T13:00:00.765Z,26.44
2019-05-23T13:01:00.945Z,26.15
2019-05-23T13:02:01.127Z,25.89
2019-05-23T13:03:01.328Z,26.07
2019-05-23T13:04:01.476Z,26.18
2019-05-23T13:05:01.716Z,26.07
2019-05-23T13:06:01.922Z,26.29
2019-05-23T13:07:02.115Z,26.15